Time;durP1;ratioP1;P1;durP2;ratioP2;P2;SDS_P1;SDS_P2;PMS_P1;PMS_P2;Temp;Humidity;BMP_temperature;BMP_pressure;BME280_temperature;BME280_humidity;BME280_pressure;Samples;Min_cycle;Max_cycle;Signal;HPM_P1;HPM_P2
2024/02/26 00:01:07;;;;;;;10.33;6.10;;;2.20;99.90;;;;;;6213741;23;20435;-75
2024/02/26 00:03:35;;;;;;;8.47;5.10;;;2.20;99.90;;;;;;6214079;23;20008;-75
2024/02/26 00:06:02;;;;;;;7.03;4.77;;;2.20;99.90;;;;;;6214754;23;20005;-75
2024/02/26 00:08:27;;;;;;;7.30;5.03;;;2.20;99.90;;;;;;6213582;23;20000;-75
2024/02/26 00:10:53;;;;;;;10.70;5.40;;;2.10;99.90;;;;;;6213583;23;20071;-75
2024/02/26 00:13:20;;;;;;;7.93;5.40;;;2.10;99.90;;;;;;6214293;23;20012;-75
2024/02/26 00:15:45;;;;;;;8.30;5.60;;;2.10;99.90;;;;;;6214196;23;20078;-75
2024/02/26 00:18:11;;;;;;;8.50;5.17;;;2.00;99.90;;;;;;6213922;23;20419;-75
2024/02/26 00:20:36;;;;;;;9.23;5.90;;;2.00;99.90;;;;;;6213891;23;20442;-75
2024/02/26 00:23:02;;;;;;;7.57;4.67;;;2.00;99.90;;;;;;6213694;23;20007;-75
2024/02/26 00:25:27;;;;;;;8.23;5.23;;;2.00;99.90;;;;;;6212648;23;20016;-75
2024/02/26 00:27:53;;;;;;;11.67;5.40;;;2.00;99.90;;;;;;6214190;23;20005;-75
2024/02/26 00:30:18;;;;;;;9.00;4.70;;;1.90;99.90;;;;;;6214898;23;20004;-75
2024/02/26 00:32:44;;;;;;;7.83;5.10;;;1.90;99.90;;;;;;6213766;23;20489;-75
2024/02/26 00:35:09;;;;;;;9.03;5.00;;;1.90;99.90;;;;;;6212836;23;20012;-75
2024/02/26 00:37:35;;;;;;;7.73;4.90;;;1.90;99.90;;;;;;6214039;23;20016;-75
2024/02/26 00:40:00;;;;;;;10.37;5.50;;;1.80;99.90;;;;;;6213559;23;19996;-75
2024/02/26 00:42:26;;;;;;;8.37;5.67;;;1.90;99.90;;;;;;6212790;23;20004;-75
2024/02/26 00:44:51;;;;;;;10.37;5.73;;;1.80;99.90;;;;;;6212705;23;20012;-75
2024/02/26 00:47:17;;;;;;;9.33;5.97;;;1.80;99.90;;;;;;6213442;23;20083;-75
2024/02/26 00:49:42;;;;;;;9.07;5.23;;;1.70;99.90;;;;;;6213143;23;20036;-75
2024/02/26 00:52:08;;;;;;;10.80;5.70;;;1.70;99.90;;;;;;6213580;23;20004;-75
2024/02/26 00:54:33;;;;;;;10.63;5.50;;;1.70;99.90;;;;;;6213673;23;20003;-75
2024/02/26 00:56:59;;;;;;;10.50;5.87;;;1.70;99.90;;;;;;6213489;23;20001;-75
2024/02/26 00:59:24;;;;;;;10.47;6.00;;;1.60;99.90;;;;;;6212806;23;20450;-75
2024/02/26 01:01:50;;;;;;;10.27;5.57;;;1.60;99.90;;;;;;6213487;23;20050;-75
2024/02/26 01:04:15;;;;;;;9.30;5.80;;;1.60;99.90;;;;;;6213300;23;20158;-75
2024/02/26 01:06:41;;;;;;;8.13;6.13;;;1.60;99.90;;;;;;6213575;23;20416;-75
2024/02/26 01:09:08;;;;;;;9.87;6.07;;;1.60;99.90;;;;;;6213131;23;20015;-75
2024/02/26 01:11:33;;;;;;;8.83;6.10;;;1.60;99.90;;;;;;6213569;23;20000;-75
2024/02/26 01:13:59;;;;;;;9.57;6.27;;;1.50;99.90;;;;;;6212338;23;20476;-75
2024/02/26 01:16:24;;;;;;;13.97;6.80;;;1.50;99.90;;;;;;6212532;23;20017;-75
2024/02/26 01:18:50;;;;;;;9.03;6.53;;;1.50;99.90;;;;;;6214737;23;20055;-75
2024/02/26 01:21:15;;;;;;;11.17;6.80;;;1.50;99.90;;;;;;6212973;23;20040;-75
2024/02/26 01:23:42;;;;;;;9.40;6.80;;;1.50;99.90;;;;;;6213279;23;20015;-75
2024/02/26 01:26:07;;;;;;;9.33;6.83;;;1.40;99.90;;;;;;6212776;23;19993;-75
2024/02/26 01:28:33;;;;;;;8.80;6.30;;;1.40;99.90;;;;;;6214100;23;20012;-75
2024/02/26 01:30:59;;;;;;;9.77;6.20;;;1.40;99.90;;;;;;6213230;23;20004;-75
2024/02/26 01:33:26;;;;;;;10.00;6.10;;;1.30;99.90;;;;;;6213404;23;20004;-75
2024/02/26 01:35:52;;;;;;;12.10;6.40;;;1.30;99.90;;;;;;6212497;23;20088;-75
2024/02/26 01:38:18;;;;;;;9.37;5.70;;;1.30;99.90;;;;;;6213082;23;20004;-75
2024/02/26 01:40:44;;;;;;;7.37;5.70;;;1.30;99.90;;;;;;6213400;23;20011;-75
2024/02/26 01:43:09;;;;;;;9.47;5.80;;;1.30;99.90;;;;;;6214247;23;20007;-75
2024/02/26 01:45:35;;;;;;;8.97;6.13;;;1.30;99.90;;;;;;6212279;23;20444;-75
2024/02/26 01:48:00;;;;;;;11.90;6.67;;;1.30;99.90;;;;;;6213152;23;20001;-75
2024/02/26 01:50:27;;;;;;;9.47;6.23;;;1.30;99.90;;;;;;6212975;23;20433;-75
2024/02/26 01:52:54;;;;;;;9.33;6.37;;;1.30;99.90;;;;;;6212805;23;20080;-75
2024/02/26 01:55:21;;;;;;;8.73;5.83;;;1.30;99.90;;;;;;6212806;23;20020;-75
2024/02/26 01:57:48;;;;;;;9.23;5.67;;;1.20;99.90;;;;;;6213741;23;20062;-75
2024/02/26 02:00:16;;;;;;;8.73;5.97;;;1.20;99.90;;;;;;6213232;23;20362;-75
2024/02/26 02:02:41;;;;;;;7.17;5.30;;;1.20;99.90;;;;;;6212077;23;20339;-75
2024/02/26 02:05:09;;;;;;;8.27;5.30;;;1.20;99.90;;;;;;6211800;23;20016;-75
2024/02/26 02:07:36;;;;;;;6.77;5.00;;;1.20;99.90;;;;;;6212423;23;20001;-75
2024/02/26 02:10:02;;;;;;;7.57;4.93;;;1.20;99.90;;;;;;6212828;23;20537;-75
2024/02/26 02:12:28;;;;;;;7.70;4.83;;;1.20;99.90;;;;;;6213301;23;20396;-75
2024/02/26 02:14:53;;;;;;;6.90;4.70;;;1.20;99.90;;;;;;6211934;23;20004;-75
2024/02/26 02:17:20;;;;;;;8.07;4.93;;;1.20;99.90;;;;;;6212238;23;20008;-75
2024/02/26 02:19:45;;;;;;;7.20;4.50;;;1.20;99.90;;;;;;6211714;23;20005;-75
2024/02/26 02:22:11;;;;;;;8.87;4.80;;;1.20;99.90;;;;;;6212582;23;20016;-75
2024/02/26 02:24:37;;;;;;;5.67;4.23;;;1.10;99.90;;;;;;6212017;23;20410;-75
2024/02/26 02:27:03;;;;;;;9.90;4.93;;;1.10;99.90;;;;;;6213626;23;20471;-75
2024/02/26 02:29:28;;;;;;;8.27;4.70;;;1.10;99.90;;;;;;6212489;23;20074;-75
2024/02/26 02:31:54;;;;;;;9.50;4.70;;;1.10;99.90;;;;;;6212551;23;19996;-75
2024/02/26 02:34:21;;;;;;;8.23;5.33;;;1.10;99.90;;;;;;6211798;23;20004;-75
2024/02/26 02:36:53;;;;;;;7.47;4.50;;;1.10;99.90;;;;;;6212762;23;20087;-75
2024/02/26 02:39:19;;;;;;;10.73;5.30;;;1.10;99.90;;;;;;6212683;23;20094;-75
2024/02/26 02:41:44;;;;;;;8.43;5.00;;;1.10;99.90;;;;;;6212970;23;20451;-75
2024/02/26 02:44:52;;;;;;;8.50;4.53;;;1.10;99.90;;;;;;6212017;23;20009;-75
2024/02/26 02:47:17;;;;;;;10.17;5.37;;;1.10;99.90;;;;;;6209253;23;20399;-75
2024/02/26 02:49:43;;;;;;;6.97;4.50;;;1.10;99.90;;;;;;6212494;23;20034;-75
2024/02/26 02:52:08;;;;;;;7.43;4.50;;;1.10;99.90;;;;;;6211975;23;20454;-75
2024/02/26 02:54:34;;;;;;;6.90;4.30;;;1.10;99.90;;;;;;6212300;23;20001;-75
2024/02/26 02:56:59;;;;;;;9.57;4.93;;;1.20;99.90;;;;;;6213381;23;20415;-75
2024/02/26 02:59:25;;;;;;;7.40;4.80;;;1.10;99.90;;;;;;6212338;23;20424;-75
2024/02/26 03:01:51;;;;;;;7.97;4.40;;;1.10;99.90;;;;;;6212211;23;20007;-75
2024/02/26 03:04:17;;;;;;;7.47;5.07;;;1.10;99.90;;;;;;6211855;23;20059;-75
2024/02/26 03:06:42;;;;;;;7.33;5.50;;;1.00;99.90;;;;;;6211968;23;20277;-75
2024/02/26 03:09:08;;;;;;;8.67;5.20;;;1.00;99.90;;;;;;6211971;23;20323;-75
2024/02/26 03:11:33;;;;;;;8.77;5.40;;;1.00;99.90;;;;;;6212814;23;19996;-75
2024/02/26 03:13:59;;;;;;;10.07;5.40;;;1.00;99.90;;;;;;6212226;23;19997;-75
2024/02/26 03:16:25;;;;;;;10.67;5.60;;;0.90;99.90;;;;;;6211075;23;20016;-75
2024/02/26 03:18:50;;;;;;;10.47;6.37;;;1.00;99.90;;;;;;6212598;23;20035;-75
2024/02/26 03:21:15;;;;;;;10.27;6.07;;;1.00;99.90;;;;;;6212579;23;20304;-75
2024/02/26 03:23:41;;;;;;;7.83;5.73;;;1.00;99.90;;;;;;6212353;23;20000;-75
2024/02/26 03:26:08;;;;;;;9.20;5.93;;;1.00;99.90;;;;;;6212029;23;20063;-75
2024/02/26 03:28:34;;;;;;;10.40;6.00;;;1.10;99.90;;;;;;6212804;23;20003;-75
2024/02/26 03:31:01;;;;;;;8.20;5.50;;;1.10;99.90;;;;;;6211773;23;20004;-75
2024/02/26 03:33:26;;;;;;;8.03;5.27;;;1.20;99.90;;;;;;6212065;23;20008;-75
2024/02/26 03:35:52;;;;;;;10.53;6.03;;;1.20;99.90;;;;;;6211446;23;20004;-75
2024/02/26 03:38:17;;;;;;;9.30;5.37;;;1.20;99.90;;;;;;6212971;23;20070;-75
2024/02/26 03:40:43;;;;;;;8.47;5.10;;;1.20;99.90;;;;;;6212031;23;20506;-75
2024/02/26 03:43:08;;;;;;;7.53;5.10;;;1.30;99.90;;;;;;6211895;23;20000;-75
2024/02/26 03:45:34;;;;;;;8.33;5.40;;;1.30;99.90;;;;;;6211057;23;20450;-75
2024/02/26 03:47:59;;;;;;;6.50;4.83;;;1.30;99.90;;;;;;6211991;23;20072;-75
2024/02/26 03:50:25;;;;;;;8.67;5.37;;;1.30;99.90;;;;;;6212876;23;20004;-75
2024/02/26 03:52:50;;;;;;;7.50;5.20;;;1.40;99.90;;;;;;6211869;23;20088;-75
2024/02/26 03:55:20;;;;;;;9.10;5.60;;;1.40;99.90;;;;;;6211348;23;20000;-75
2024/02/26 03:57:46;;;;;;;7.40;4.90;;;1.40;99.90;;;;;;6211923;23;20008;-75
2024/02/26 04:00:12;;;;;;;7.57;4.37;;;1.50;99.90;;;;;;6212779;23;20082;-75
2024/02/26 04:02:38;;;;;;;7.33;5.20;;;1.50;99.90;;;;;;6211930;23;20000;-75
2024/02/26 04:05:04;;;;;;;9.87;5.20;;;1.50;99.90;;;;;;6211559;23;20039;-75
2024/02/26 04:07:30;;;;;;;7.40;4.97;;;1.50;99.90;;;;;;6211565;23;20024;-75
2024/02/26 04:09:55;;;;;;;9.63;5.00;;;1.50;99.90;;;;;;6211722;23;20003;-75
2024/02/26 04:12:21;;;;;;;6.97;5.13;;;1.50;99.90;;;;;;6211888;23;20367;-75
2024/02/26 04:14:46;;;;;;;8.07;4.70;;;1.50;99.90;;;;;;6211412;23;20493;-75
2024/02/26 04:17:12;;;;;;;7.90;4.40;;;1.50;99.90;;;;;;6211587;23;20012;-75
2024/02/26 04:19:37;;;;;;;6.43;4.57;;;1.50;99.90;;;;;;6213056;23;20008;-75
2024/02/26 04:22:03;;;;;;;7.37;4.80;;;1.40;99.90;;;;;;6211942;23;20007;-75
2024/02/26 04:24:29;;;;;;;5.90;4.27;;;1.40;99.90;;;;;;6211211;23;20043;-76
2024/02/26 04:26:54;;;;;;;7.77;4.30;;;1.40;99.90;;;;;;6212360;23;20016;-76
2024/02/26 04:29:20;;;;;;;20.87;12.57;;;1.30;99.90;;;;;;6211128;23;20382;-76
2024/02/26 04:31:46;;;;;;;18.87;12.23;;;1.30;99.90;;;;;;6212016;23;20005;-76
2024/02/26 04:34:12;;;;;;;15.93;9.03;;;1.30;99.90;;;;;;6211693;23;20054;-77
2024/02/26 04:36:37;;;;;;;15.70;7.43;;;1.20;99.90;;;;;;6211688;23;20075;-77
2024/02/26 04:39:03;;;;;;;13.07;6.20;;;1.20;99.90;;;;;;6212132;23;20454;-76
2024/02/26 04:41:28;;;;;;;18.40;7.80;;;1.20;99.90;;;;;;6211944;23;20064;-77
2024/02/26 04:43:54;;;;;;;14.37;7.63;;;1.20;99.90;;;;;;6212431;23;20390;-77
2024/02/26 04:46:21;;;;;;;9.87;5.30;;;1.20;99.90;;;;;;6214090;23;20003;-77
2024/02/26 04:48:47;;;;;;;14.10;4.70;;;1.20;99.90;;;;;;6213381;23;20005;-77
2024/02/26 04:51:12;;;;;;;10.33;4.53;;;1.10;99.90;;;;;;6212788;23;20454;-76
2024/02/26 04:53:38;;;;;;;8.77;4.40;;;1.10;99.90;;;;;;6213003;23;20068;-76
2024/02/26 04:56:04;;;;;;;7.37;4.43;;;1.10;99.90;;;;;;6214098;23;20001;-76
2024/02/26 04:58:29;;;;;;;12.33;5.00;;;1.10;99.90;;;;;;6213216;23;20439;-77
2024/02/26 05:00:55;;;;;;;9.57;4.30;;;1.00;99.90;;;;;;6213275;23;20054;-76
2024/02/26 05:03:21;;;;;;;8.83;4.67;;;1.00;99.90;;;;;;6213251;23;20557;-76
2024/02/26 05:05:46;;;;;;;9.60;4.47;;;1.00;99.90;;;;;;6212302;23;20012;-76
2024/02/26 05:08:12;;;;;;;6.90;4.73;;;1.00;99.90;;;;;;6213696;23;20001;-76
2024/02/26 05:10:42;;;;;;;6.27;4.47;;;1.00;99.90;;;;;;6212753;23;20001;-76
2024/02/26 05:13:08;;;;;;;8.27;4.30;;;1.00;99.90;;;;;;6210781;23;20505;-76
2024/02/26 05:15:35;;;;;;;11.47;5.10;;;1.00;99.90;;;;;;6212303;23;19996;-76
2024/02/26 05:18:00;;;;;;;7.30;4.60;;;1.00;99.90;;;;;;6212875;23;20046;-77
2024/02/26 05:20:26;;;;;;;8.83;4.53;;;1.00;99.90;;;;;;6211324;23;20449;-78
2024/02/26 05:22:51;;;;;;;12.03;6.10;;;1.00;99.90;;;;;;6210683;23;20001;-77
2024/02/26 05:25:17;;;;;;;8.93;4.90;;;0.90;99.90;;;;;;6210625;23;20009;-77
2024/02/26 05:27:44;;;;;;;8.27;5.37;;;0.90;99.90;;;;;;6211434;23;20000;-77
2024/02/26 05:30:10;;;;;;;10.17;5.13;;;0.90;99.90;;;;;;6213154;23;20004;-77
2024/02/26 05:32:36;;;;;;;12.27;6.00;;;0.90;99.90;;;;;;6213974;23;20005;-77
2024/02/26 05:35:03;;;;;;;9.33;5.40;;;0.90;99.90;;;;;;6212772;23;20091;-77
2024/02/26 05:37:29;;;;;;;9.47;5.40;;;0.90;99.90;;;;;;6213330;23;20790;-77
2024/02/26 05:39:55;;;;;;;10.13;5.10;;;0.90;99.90;;;;;;6214562;23;20033;-78
2024/02/26 05:42:20;;;;;;;10.50;5.70;;;0.90;99.90;;;;;;6213224;23;20001;-77
2024/02/26 05:44:46;;;;;;;15.57;5.90;;;1.00;99.90;;;;;;6212170;23;20008;-77
2024/02/26 05:47:12;;;;;;;19.07;5.90;;;0.90;99.90;;;;;;6211435;23;20116;-77
2024/02/26 05:49:37;;;;;;;8.67;5.87;;;1.00;99.90;;;;;;6211045;23;20423;-78
2024/02/26 05:52:03;;;;;;;14.33;6.47;;;1.00;99.90;;;;;;6209101;23;20012;-70
2024/02/26 05:54:28;;;;;;;29.00;6.23;;;1.00;99.90;;;;;;6209949;23;20020;-70
2024/02/26 05:56:54;;;;;;;8.53;5.03;;;1.00;99.90;;;;;;6212234;23;20018;-70
2024/02/26 05:59:19;;;;;;;14.60;6.67;;;1.00;99.90;;;;;;6212510;23;20076;-70
2024/02/26 06:01:45;;;;;;;8.53;5.50;;;1.00;99.90;;;;;;6212363;23;20032;-70
2024/02/26 06:04:12;;;;;;;9.83;5.40;;;1.00;99.90;;;;;;6211770;23;20407;-76
2024/02/26 06:06:37;;;;;;;13.13;5.80;;;1.00;99.90;;;;;;6210462;23;20005;-77
2024/02/26 06:09:05;;;;;;;13.43;6.73;;;1.00;99.90;;;;;;6212105;23;20431;-77
2024/02/26 06:11:30;;;;;;;10.93;5.13;;;1.00;99.90;;;;;;6212508;23;20331;-76
2024/02/26 06:13:56;;;;;;;9.97;5.43;;;1.00;99.90;;;;;;6212306;23;20007;-77
2024/02/26 06:16:22;;;;;;;13.33;6.27;;;1.00;99.90;;;;;;6211864;23;20012;-77
2024/02/26 06:18:47;;;;;;;12.57;5.87;;;1.00;99.90;;;;;;6213862;23;20071;-76
2024/02/26 06:21:13;;;;;;;8.17;5.47;;;1.10;99.90;;;;;;6212043;23;20111;-77
2024/02/26 06:23:40;;;;;;;12.80;5.40;;;1.10;99.90;;;;;;6211874;23;20016;-77
2024/02/26 06:26:05;;;;;;;9.00;5.10;;;1.20;99.90;;;;;;6208263;23;20641;-76
2024/02/26 06:28:33;;;;;;;8.30;5.83;;;1.10;99.90;;;;;;6212830;23;20004;-77
2024/02/26 06:30:59;;;;;;;8.70;5.30;;;1.20;99.90;;;;;;6212614;23;20004;-77
2024/02/26 06:33:24;;;;;;;10.47;6.07;;;1.20;99.90;;;;;;6212030;23;20365;-76
2024/02/26 06:35:50;;;;;;;7.53;4.93;;;1.20;99.90;;;;;;6209520;23;20008;-77
2024/02/26 06:38:17;;;;;;;11.40;6.63;;;1.30;99.90;;;;;;6211496;23;20087;-78
2024/02/26 06:40:43;;;;;;;11.63;5.97;;;1.30;99.90;;;;;;6211005;23;20462;-78
2024/02/26 06:43:09;;;;;;;11.13;6.10;;;1.40;99.90;;;;;;6212102;23;20009;-80
2024/02/26 06:45:34;;;;;;;12.90;6.43;;;1.40;99.90;;;;;;6210002;23;20051;-78
2024/02/26 06:48:00;;;;;;;12.63;7.37;;;1.50;99.90;;;;;;6211029;23;19997;-78
2024/02/26 06:50:26;;;;;;;12.53;8.63;;;1.50;99.90;;;;;;6211291;23;19997;-79
2024/02/26 06:52:51;;;;;;;12.17;8.17;;;1.50;99.90;;;;;;6212555;23;20040;-78
2024/02/26 06:55:17;;;;;;;20.37;11.67;;;1.60;99.90;;;;;;6206423;23;20008;-77
2024/02/26 06:57:42;;;;;;;17.10;8.37;;;1.60;99.90;;;;;;6209976;23;20084;-77
2024/02/26 07:00:08;;;;;;;14.57;8.50;;;1.70;99.90;;;;;;6210467;23;20008;-80
2024/02/26 07:02:34;;;;;;;12.10;7.17;;;1.70;99.90;;;;;;6212465;23;20412;-80
2024/02/26 07:04:59;;;;;;;14.97;8.83;;;1.70;99.90;;;;;;6211260;23;20019;-77
2024/02/26 07:07:25;;;;;;;11.33;8.40;;;1.80;99.90;;;;;;6213213;23;20323;-77
2024/02/26 07:09:51;;;;;;;13.97;8.37;;;1.80;99.90;;;;;;6212624;23;20004;-77
2024/02/26 07:12:17;;;;;;;13.70;8.97;;;1.80;99.90;;;;;;6211186;23;20005;-78
2024/02/26 07:14:43;;;;;;;15.07;8.30;;;1.90;99.90;;;;;;6211790;23;20031;-77
2024/02/26 07:17:08;;;;;;;14.27;8.80;;;1.90;99.90;;;;;;6210525;23;20066;-77
2024/02/26 07:19:34;;;;;;;12.20;7.93;;;2.00;99.90;;;;;;6212290;23;20439;-77
2024/02/26 07:22:02;;;;;;;12.87;8.47;;;2.10;99.90;;;;;;6212021;23;20005;-76
2024/02/26 07:24:28;;;;;;;12.37;8.20;;;2.10;99.90;;;;;;6210953;23;20074;-77
2024/02/26 07:26:56;;;;;;;17.23;8.67;;;2.20;99.90;;;;;;6211465;23;20431;-78
2024/02/26 07:29:22;;;;;;;15.57;9.20;;;2.20;99.90;;;;;;6210175;23;20015;-77
2024/02/26 07:31:47;;;;;;;15.27;8.27;;;2.30;99.90;;;;;;6210452;23;20004;-77
2024/02/26 07:34:13;;;;;;;16.53;8.73;;;2.40;99.90;;;;;;6210130;23;20335;-77
2024/02/26 07:36:39;;;;;;;15.50;9.53;;;2.40;99.90;;;;;;6210147;23;20055;-77
2024/02/26 07:39:05;;;;;;;14.47;9.43;;;2.50;99.90;;;;;;6210172;23;20135;-77
2024/02/26 07:41:30;;;;;;;16.53;9.17;;;2.50;99.90;;;;;;6208477;23;20076;-76
2024/02/26 07:43:56;;;;;;;16.00;8.37;;;2.50;99.90;;;;;;6208102;23;20001;-76
2024/02/26 07:46:21;;;;;;;16.80;9.60;;;2.50;99.90;;;;;;6210593;23;20494;-76
2024/02/26 07:48:47;;;;;;;20.30;10.13;;;2.60;99.90;;;;;;6210305;23;20028;-77
2024/02/26 07:51:17;;;;;;;14.20;9.87;;;2.60;99.90;;;;;;6210331;23;20000;-77
2024/02/26 07:53:42;;;;;;;14.03;9.37;;;2.60;99.90;;;;;;6184613;23;20028;-77
2024/02/26 07:56:09;;;;;;;17.47;10.53;;;2.70;99.90;;;;;;6210590;23;20301;-76
2024/02/26 07:58:34;;;;;;;15.63;10.27;;;2.80;99.90;;;;;;6211289;23;20005;-76
2024/02/26 08:01:00;;;;;;;15.20;9.87;;;2.80;99.90;;;;;;6211287;23;20007;-76
2024/02/26 08:03:25;;;;;;;18.23;9.37;;;2.90;99.90;;;;;;6212212;23;20027;-77
2024/02/26 08:05:51;;;;;;;15.20;10.17;;;2.90;99.90;;;;;;6210885;23;20472;-77
2024/02/26 08:08:17;;;;;;;12.60;9.00;;;3.00;99.90;;;;;;6212025;23;20099;-77
2024/02/26 08:10:43;;;;;;;15.13;9.43;;;3.10;99.90;;;;;;6211743;23;20023;-76
2024/02/26 08:13:08;;;;;;;14.53;9.60;;;3.20;99.90;;;;;;6211486;23;20431;-77
2024/02/26 08:15:35;;;;;;;15.23;9.87;;;3.20;99.90;;;;;;6210028;23;20008;-77
2024/02/26 08:18:04;;;;;;;19.27;10.30;;;3.30;99.90;;;;;;6212744;23;20012;-76
2024/02/26 08:20:30;;;;;;;19.90;11.27;;;3.30;99.90;;;;;;6214442;23;20122;-76
2024/02/26 08:22:57;;;;;;;18.70;11.40;;;3.30;99.90;;;;;;6213958;23;20004;-76
2024/02/26 08:25:23;;;;;;;20.33;12.33;;;3.40;99.90;;;;;;6210753;23;20459;-76
2024/02/26 08:27:49;;;;;;;16.23;10.40;;;3.40;99.90;;;;;;6211545;23;20374;-77
2024/02/26 08:30:16;;;;;;;18.77;11.80;;;3.50;99.90;;;;;;6211677;23;20001;-76
2024/02/26 08:32:43;;;;;;;15.57;10.40;;;3.60;99.90;;;;;;6211172;23;20439;-77
2024/02/26 08:35:08;;;;;;;16.47;10.50;;;3.70;99.90;;;;;;6210231;23;20012;-77
2024/02/26 08:37:34;;;;;;;18.00;10.40;;;3.70;99.90;;;;;;6210965;23;20001;-77
2024/02/26 08:39:59;;;;;;;16.60;10.87;;;3.90;99.90;;;;;;6212609;23;20001;-77
2024/02/26 08:42:25;;;;;;;15.33;9.63;;;4.00;99.90;;;;;;6214418;23;20004;-77
2024/02/26 08:44:50;;;;;;;20.53;10.70;;;4.00;99.90;;;;;;6210680;23;20005;-77
2024/02/26 08:47:16;;;;;;;19.17;10.27;;;4.10;99.90;;;;;;6212446;23;20012;-77
2024/02/26 08:49:45;;;;;;;19.93;11.63;;;4.10;99.90;;;;;;6212587;23;20011;-77
2024/02/26 08:52:11;;;;;;;21.60;11.70;;;4.20;99.90;;;;;;6213190;23;20011;-77
2024/02/26 08:54:36;;;;;;;22.53;11.13;;;4.20;99.90;;;;;;6211539;23;20640;-77
2024/02/26 08:57:02;;;;;;;19.63;10.77;;;4.30;99.90;;;;;;6211212;23;20024;-77
2024/02/26 08:59:28;;;;;;;20.33;11.13;;;4.30;99.90;;;;;;6183987;23;20039;-78
2024/02/26 09:01:53;;;;;;;21.20;11.70;;;4.30;99.90;;;;;;6184000;23;20004;-77
2024/02/26 09:04:19;;;;;;;26.70;11.37;;;4.40;99.90;;;;;;6183007;23;20428;-77
2024/02/26 09:06:45;;;;;;;26.13;11.73;;;4.40;99.90;;;;;;6186000;23;20005;-78
2024/02/26 09:09:10;;;;;;;16.47;10.33;;;4.50;99.90;;;;;;6184543;23;20088;-79
2024/02/26 09:11:36;;;;;;;18.20;11.57;;;4.60;99.90;;;;;;6183735;23;20088;-77
2024/02/26 09:14:03;;;;;;;23.47;12.47;;;4.70;99.90;;;;;;6181688;23;20043;-77
2024/02/26 09:16:29;;;;;;;16.33;10.50;;;4.70;99.90;;;;;;6186236;23;20430;-76
2024/02/26 09:18:54;;;;;;;19.53;11.57;;;4.80;99.90;;;;;;6212554;23;20032;-77
2024/02/26 09:21:23;;;;;;;22.60;13.40;;;4.90;99.90;;;;;;6212806;23;20008;-77
2024/02/26 09:23:50;;;;;;;14.97;9.93;;;5.00;99.90;;;;;;6185810;23;20005;-77
2024/02/26 09:26:16;;;;;;;22.73;10.67;;;5.10;99.90;;;;;;6212262;23;20009;-77
2024/02/26 09:28:42;;;;;;;22.33;10.27;;;5.20;99.90;;;;;;6212135;23;20056;-77
2024/02/26 09:31:07;;;;;;;15.90;8.57;;;5.40;99.90;;;;;;6212862;23;20016;-77
2024/02/26 09:33:33;;;;;;;19.93;10.23;;;5.60;99.90;;;;;;6212468;23;20005;-77
2024/02/26 09:36:00;;;;;;;17.73;9.13;;;5.80;99.90;;;;;;6212733;23;20011;-77
2024/02/26 09:38:26;;;;;;;22.07;8.83;;;6.00;99.90;;;;;;6212577;23;20051;-77
2024/02/26 09:40:52;;;;;;;25.10;15.07;;;6.20;99.90;;;;;;6211970;23;20419;-77
2024/02/26 09:43:23;;;;;;;22.07;11.23;;;6.40;99.90;;;;;;6212160;23;20011;-77
2024/02/26 09:45:51;;;;;;;19.40;11.43;;;6.70;99.90;;;;;;6212724;23;20008;-77
2024/02/26 09:48:17;;;;;;;16.10;8.10;;;6.90;99.90;;;;;;6212587;23;20028;-77
2024/02/26 09:50:43;;;;;;;16.87;9.80;;;7.00;99.90;;;;;;6212122;23;20008;-77
2024/02/26 09:53:12;;;;;;;14.30;9.37;;;7.20;99.90;;;;;;6212632;23;20008;-77
2024/02/26 09:55:37;;;;;;;12.10;6.40;;;7.30;99.90;;;;;;6211463;23;20100;-77
2024/02/26 09:58:05;;;;;;;17.43;8.10;;;7.40;99.90;;;;;;6208475;23;20431;-78
2024/02/26 10:00:34;;;;;;;20.40;8.10;;;7.50;99.90;;;;;;6205430;23;20005;-78
2024/02/26 10:03:04;;;;;;;13.97;8.70;;;7.60;99.90;;;;;;6182491;23;20330;-78
2024/02/26 10:05:33;;;;;;;19.27;5.97;;;7.60;99.90;;;;;;6179634;23;20012;-77
2024/02/26 10:08:00;;;;;;;24.93;8.17;;;7.70;99.90;;;;;;6188153;23;20004;-77
2024/02/26 10:10:28;;;;;;;14.47;8.80;;;7.90;99.90;;;;;;6209938;23;20072;-77
2024/02/26 10:12:54;;;;;;;16.23;7.63;;;8.10;99.90;;;;;;6209905;23;20009;-77
2024/02/26 10:15:19;;;;;;;18.30;6.67;;;8.10;99.90;;;;;;6209072;23;20004;-77
2024/02/26 10:17:45;;;;;;;13.73;5.93;;;8.20;99.90;;;;;;6210036;23;20317;-78
2024/02/26 10:20:16;;;;;;;22.20;9.03;;;8.40;99.90;;;;;;6212138;23;20032;-77
2024/02/26 10:22:42;;;;;;;12.77;4.93;;;8.60;99.90;;;;;;6212278;23;20058;-77
2024/02/26 10:25:08;;;;;;;10.07;4.03;;;8.80;99.90;;;;;;6211910;23;20013;-77
2024/02/26 10:27:34;;;;;;;10.50;3.93;;;8.90;99.90;;;;;;6212052;23;19996;-78
2024/02/26 10:30:25;;;;;;;6.07;3.07;;;9.10;99.90;;;;;;6210102;23;20005;-77
2024/02/26 10:32:51;;;;;;;9.33;4.30;;;9.20;99.90;;;;;;6212456;23;20001;-77
2024/02/26 10:35:17;;;;;;;10.63;3.50;;;9.30;99.90;;;;;;6207158;23;20814;-77
2024/02/26 10:37:43;;;;;;;11.97;2.77;;;9.40;99.90;;;;;;6182657;23;20015;-79
2024/02/26 10:40:13;;;;;;;4.90;2.70;;;9.50;99.90;;;;;;6182609;23;20001;-77
2024/02/26 10:42:39;;;;;;;8.40;2.33;;;9.60;99.90;;;;;;6183185;23;20001;-77
2024/02/26 10:45:06;;;;;;;9.47;2.10;;;9.70;99.90;;;;;;6210054;23;20092;-77
2024/02/26 10:47:33;;;;;;;6.40;2.23;;;9.80;99.90;;;;;;6212259;23;20004;-77
2024/02/26 10:50:01;;;;;;;6.90;1.97;;;9.90;99.90;;;;;;6211660;23;20012;-77
2024/02/26 10:52:30;;;;;;;12.27;2.10;;;9.90;99.90;;;;;;6212256;23;20008;-77
2024/02/26 10:54:59;;;;;;;10.03;2.30;;;10.00;99.90;;;;;;6185008;23;20386;-77
2024/02/26 10:57:25;;;;;;;12.93;3.27;;;10.00;99.90;;;;;;6211759;23;20004;-77
2024/02/26 10:59:53;;;;;;;9.63;2.33;;;10.20;99.90;;;;;;6212351;23;20000;-77
2024/02/26 11:02:20;;;;;;;5.73;2.13;;;10.30;99.90;;;;;;6211712;23;20177;-77
2024/02/26 11:04:47;;;;;;;7.00;2.00;;;10.50;99.90;;;;;;6184852;23;20451;-77
2024/02/26 11:07:13;;;;;;;4.67;1.77;;;10.60;99.90;;;;;;6211876;23;20096;-77
2024/02/26 11:09:44;;;;;;;9.87;1.50;;;10.70;99.90;;;;;;6212213;23;20312;-78
2024/02/26 11:12:12;;;;;;;7.20;1.50;;;10.90;99.90;;;;;;6203639;23;20099;-79
2024/02/26 11:14:44;;;;;;;3.63;1.50;;;11.00;99.90;;;;;;6181677;23;20015;-77
2024/02/26 11:17:10;;;;;;;7.83;2.13;;;11.40;99.90;;;;;;6181552;23;20905;-78
2024/02/26 11:19:39;;;;;;;5.50;1.70;;;11.60;99.90;;;;;;6182366;23;20034;-78
2024/02/26 11:22:04;;;;;;;;;;;11.80;99.90;;;;;;6181101;23;20023;-79
2024/02/26 11:24:30;;;;;;;;;;;11.90;99.90;;;;;;6182431;23;20016;-78
2024/02/26 11:26:58;;;;;;;;;;;11.80;99.90;;;;;;6184193;23;20044;-77
2024/02/26 11:29:28;;;;;;;5.80;1.40;;;11.80;99.90;;;;;;6183224;23;20127;-86
2024/02/26 11:31:53;;;;;;;;;;;11.80;99.90;;;;;;6182879;23;20020;-76
2024/02/26 11:34:19;;;;;;;8.20;4.70;;;11.80;99.90;;;;;;6199610;23;20017;-76
2024/02/26 11:36:46;;;;;;;;;;;11.90;99.90;;;;;;6210512;23;20026;-76
2024/02/26 11:39:16;;;;;;;;;;;12.00;99.90;;;;;;6211639;23;20047;-76
2024/02/26 11:41:42;;;;;;;;;;;12.10;99.90;;;;;;6210369;23;20016;-77
2024/02/26 11:44:08;;;;;;;;;;;12.20;99.90;;;;;;6212353;23;20031;-76
2024/02/26 11:46:43;;;;;;;6.20;1.70;;;12.20;99.90;;;;;;6211873;23;20024;-76
2024/02/26 11:49:23;;;;;;;;;;;12.40;99.90;;;;;;6211897;23;20448;-76
2024/02/26 11:51:54;;;;;;;4.47;1.50;;;12.60;99.90;;;;;;6212074;23;19961;-77
2024/02/26 11:54:44;;;;;;;6.90;1.75;;;12.80;99.90;;;;;;6212508;23;20069;-76
2024/02/26 11:57:30;;;;;;;5.50;1.70;;;13.10;99.90;;;;;;6213389;23;19907;-77
2024/02/26 12:00:11;;;;;;;3.30;1.70;;;13.20;99.90;;;;;;6214074;23;19954;-76
2024/02/26 12:02:41;;;;;;;5.50;1.50;;;13.30;99.90;;;;;;6215271;23;20042;-76
2024/02/26 12:05:09;;;;;;;;;;;13.20;99.90;;;;;;6212987;23;20365;-76
2024/02/26 12:07:36;;;;;;;4.55;2.15;;;13.10;99.90;;;;;;6213739;23;20347;-76
2024/02/26 12:10:19;;;;;;;;;;;13.00;99.90;;;;;;6214410;23;19900;-76
2024/02/26 12:12:45;;;;;;;;;;;13.00;99.90;;;;;;6213252;23;20028;-76
2024/02/26 12:15:11;;;;;;;;;;;13.00;99.90;;;;;;6214042;23;20024;-76
2024/02/26 12:17:37;;;;;;;;;;;13.00;99.90;;;;;;6212974;23;20095;-76
2024/02/26 12:20:12;;;;;;;;;;;12.90;99.90;;;;;;6214797;23;20057;-76
2024/02/26 12:22:40;;;;;;;2.95;1.50;;;13.00;99.90;;;;;;6213850;23;20012;-70
2024/02/26 12:25:09;;;;;;;3.50;1.60;;;13.10;99.90;;;;;;6213234;23;20207;-70
2024/02/26 12:27:35;;;;;;;3.25;1.60;;;13.20;99.90;;;;;;6213039;23;20009;-70
2024/02/26 12:30:00;;;;;;;;;;;13.30;99.90;;;;;;6213967;23;19900;-70
2024/02/26 12:32:26;;;;;;;;;;;13.40;99.90;;;;;;6213319;23;20350;-70
2024/02/26 12:34:51;;;;;;;;;;;13.50;99.90;;;;;;6213113;23;20383;-69
2024/02/26 12:37:17;;;;;;;;;;;13.60;99.90;;;;;;6213876;23;20031;-70
2024/02/26 12:39:43;;;;;;;;;;;13.70;99.90;;;;;;6214620;23;20008;-70
2024/02/26 12:42:09;;;;;;;;;;;13.70;99.90;;;;;;6212771;23;20497;-70
2024/02/26 12:44:34;;;;;;;;;;;13.50;99.90;;;;;;6212636;23;20023;-70
2024/02/26 12:47:03;;;;;;;;;;;13.30;99.90;;;;;;6212734;23;20085;-71
2024/02/26 12:49:29;;;;;;;;;;;13.30;99.90;;;;;;6213465;23;20080;-70
2024/02/26 12:52:01;;;;;;;;;;;13.20;99.90;;;;;;6213636;23;20101;-71